首页
METAR-TAF:

METAR-TAF

机场 :

Sioux Lookout, 安大略省, 加拿大

纬度: 50-07N, 经度: 091-54W, 海拔: 389米

当前天气观测

该预报发布于19分钟前的03:00 UTC
风速3节,风向
温度 15°C
湿度 48%
气压 1017 hPa
能見度: 24.1公里
少量云层高于14000英尺
少量云层高于23000英尺

METAR: CYXL 010300Z 19003KT 15SM FEW140 FEW230 15/04 A3004 RMK AC1CI1 AC TR SLP181 DENSITY ALT 1500FT

时间: 22:19 (03:19 UTC)

预报

该预报发布于1小时和54分钟前的01:25 UTC
预报有效从01日的 02点(UTC)到 01日的 14点(UTC)
风速5节,风向西转西南
能見度: 10公里
散云层高于25000英尺
从 01日的 0900点(UTC)
风速3节,风向
能見度: 10公里
散云层高于5000英尺
多云层高于15000英尺

TAF: CYXL 010125Z 0102/0114 25005KT P6SM SCT250 FM010900 18003KT P6SM SCT050 BKN150 RMK NXT FCST BY 010800Z

超过4000个机场的气象观测和天气预报(METAR&TAF报告)。

可查询的气象台以黄色和红色小点在地图上表示。

将鼠标移到小点上方,可查看气象台名称。

然后点击查看天气观测和预报。

如需切换地图:点击带黑十字的绿色按钮放大地图;点击带横线的绿色按钮缩小地图;或者点击绿色箭头查看邻近地区的地图。


METAR-TAF: